sensor_id;sensor_type;location;lat;lon;timestamp;pressure;altitude;pressure_sealevel;temperature;humidity
9415;BME280;4746;35.664;139.738;2023-01-29T00:00:10;100292.13;;;8.32;29.39
9415;BME280;4746;35.664;139.738;2023-01-29T00:02:38;100289.59;;;8.35;29.51
9415;BME280;4746;35.664;139.738;2023-01-29T00:05:06;100291.41;;;8.41;29.18
9415;BME280;4746;35.664;139.738;2023-01-29T00:07:36;100283.84;;;8.47;29.30
9415;BME280;4746;35.664;139.738;2023-01-29T00:10:04;100293.28;;;8.51;29.49
9415;BME280;4746;35.664;139.738;2023-01-29T00:12:32;100288.25;;;8.57;29.31
9415;BME280;4746;35.664;139.738;2023-01-29T00:14:59;100279.88;;;8.64;29.20
9415;BME280;4746;35.664;139.738;2023-01-29T00:17:27;100277.41;;;8.70;28.78
9415;BME280;4746;35.664;139.738;2023-01-29T00:19:54;100281.72;;;8.74;28.67
9415;BME280;4746;35.664;139.738;2023-01-29T00:22:22;100279.25;;;8.80;29.20
9415;BME280;4746;35.664;139.738;2023-01-29T00:24:50;100269.94;;;8.82;29.15
9415;BME280;4746;35.664;139.738;2023-01-29T00:27:17;100280.25;;;8.88;28.70
9415;BME280;4746;35.664;139.738;2023-01-29T00:29:45;100270.97;;;8.96;28.67
9415;BME280;4746;35.664;139.738;2023-01-29T00:32:32;100282.91;;;8.98;28.85
9415;BME280;4746;35.664;139.738;2023-01-29T00:35:00;100279.53;;;8.98;28.72
9415;BME280;4746;35.664;139.738;2023-01-29T00:37:27;100283.00;;;9.04;28.60
9415;BME280;4746;35.664;139.738;2023-01-29T00:39:55;100279.69;;;9.09;28.09
9415;BME280;4746;35.664;139.738;2023-01-29T00:42:24;100273.78;;;9.13;28.18
9415;BME280;4746;35.664;139.738;2023-01-29T00:45:11;100268.72;;;9.16;28.21
9415;BME280;4746;35.664;139.738;2023-01-29T00:47:38;100267.91;;;9.20;27.42
9415;BME280;4746;35.664;139.738;2023-01-29T00:50:10;100255.16;;;9.23;27.35
9415;BME280;4746;35.664;139.738;2023-01-29T00:52:44;100269.63;;;9.21;27.34
9415;BME280;4746;35.664;139.738;2023-01-29T00:55:14;100273.00;;;9.19;27.62
9415;BME280;4746;35.664;139.738;2023-01-29T00:57:42;100266.19;;;9.19;27.19
9415;BME280;4746;35.664;139.738;2023-01-29T01:00:14;100262.81;;;9.22;27.59
9415;BME280;4746;35.664;139.738;2023-01-29T01:02:44;100265.38;;;9.23;27.46
9415;BME280;4746;35.664;139.738;2023-01-29T01:05:30;100267.19;;;9.30;27.40
9415;BME280;4746;35.664;139.738;2023-01-29T01:07:59;100265.59;;;9.38;27.78
9415;BME280;4746;35.664;139.738;2023-01-29T01:10:31;100274.22;;;9.46;27.41
9415;BME280;4746;35.664;139.738;2023-01-29T01:13:17;100267.41;;;9.48;26.79
9415;BME280;4746;35.664;139.738;2023-01-29T01:15:47;100273.47;;;9.55;26.48
9415;BME280;4746;35.664;139.738;2023-01-29T01:18:14;100269.31;;;9.64;26.84
9415;BME280;4746;35.664;139.738;2023-01-29T01:20:49;100265.97;;;9.69;26.67
9415;BME280;4746;35.664;139.738;2023-01-29T01:23:21;100262.66;;;9.78;26.92
9415;BME280;4746;35.664;139.738;2023-01-29T01:25:52;100261.81;;;9.82;27.55
9415;BME280;4746;35.664;139.738;2023-01-29T01:28:53;100266.22;;;9.95;26.54
9415;BME280;4746;35.664;139.738;2023-01-29T01:31:30;100263.69;;;9.96;26.40
9415;BME280;4746;35.664;139.738;2023-01-29T01:34:01;100261.94;;;9.91;26.35
9415;BME280;4746;35.664;139.738;2023-01-29T01:36:29;100247.41;;;9.90;26.36
9415;BME280;4746;35.664;139.738;2023-01-29T01:39:07;100245.91;;;10.04;26.21
9415;BME280;4746;35.664;139.738;2023-01-29T01:42:00;100237.47;;;10.15;26.32
9415;BME280;4746;35.664;139.738;2023-01-29T01:45:02;100234.94;;;10.18;25.95
9415;BME280;4746;35.664;139.738;2023-01-29T01:47:47;100229.00;;;10.24;26.02
9415;BME280;4746;35.664;139.738;2023-01-29T01:50:33;100225.66;;;10.31;25.66
9415;BME280;4746;35.664;139.738;2023-01-29T01:53:35;100216.34;;;10.41;25.49
9415;BME280;4746;35.664;139.738;2023-01-29T01:56:29;100207.91;;;10.53;25.14
9415;BME280;4746;35.664;139.738;2023-01-29T01:59:21;100208.81;;;10.64;24.95
9415;BME280;4746;35.664;139.738;2023-01-29T02:01:56;100194.38;;;10.73;25.27
9415;BME280;4746;35.664;139.738;2023-01-29T02:04:56;100195.28;;;10.87;25.45
9415;BME280;4746;35.664;139.738;2023-01-29T02:07:56;100195.38;;;11.01;25.11
9415;BME280;4746;35.664;139.738;2023-01-29T02:10:50;100181.75;;;11.18;24.72
9415;BME280;4746;35.664;139.738;2023-01-29T02:13:30;100177.53;;;11.27;24.83
9415;BME280;4746;35.664;139.738;2023-01-29T02:29:00;100143.47;;;11.98;24.13
9415;BME280;4746;35.664;139.738;2023-01-29T02:32:15;100138.34;;;12.27;24.19
9415;BME280;4746;35.664;139.738;2023-01-29T02:42:17;100113.94;;;13.42;23.80
9415;BME280;4746;35.664;139.738;2023-01-29T02:47:59;100107.47;;;14.06;22.94
9415;BME280;4746;35.664;139.738;2023-01-29T02:53:35;100095.94;;;14.46;22.36
9415;BME280;4746;35.664;139.738;2023-01-29T02:56:20;100088.03;;;14.62;21.82
9415;BME280;4746;35.664;139.738;2023-01-29T02:59:00;100081.06;;;14.68;21.92
9415;BME280;4746;35.664;139.738;2023-01-29T03:02:00;100084.44;;;14.75;21.82
9415;BME280;4746;35.664;139.738;2023-01-29T03:04:42;100080.88;;;14.82;21.87
9415;BME280;4746;35.664;139.738;2023-01-29T03:07:36;100071.84;;;15.17;21.84
9415;BME280;4746;35.664;139.738;2023-01-29T03:10:36;100062.63;;;15.60;21.60
9415;BME280;4746;35.664;139.738;2023-01-29T03:16:24;100052.53;;;15.96;20.83
9415;BME280;4746;35.664;139.738;2023-01-29T03:19:12;100041.13;;;16.07;21.14
9415;BME280;4746;35.664;139.738;2023-01-29T03:21:51;100038.41;;;16.13;20.99
9415;BME280;4746;35.664;139.738;2023-01-29T03:27:37;100026.84;;;16.77;21.50
9415;BME280;4746;35.664;139.738;2023-01-29T03:30:27;100033.66;;;17.21;20.52
9415;BME280;4746;35.664;139.738;2023-01-29T03:33:17;100041.44;;;17.57;19.96
9415;BME280;4746;35.664;139.738;2023-01-29T03:36:04;100026.97;;;17.48;19.46
9415;BME280;4746;35.664;139.738;2023-01-29T03:38:33;100013.59;;;17.30;19.71
9415;BME280;4746;35.664;139.738;2023-01-29T03:41:32;100022.81;;;17.43;19.81
9415;BME280;4746;35.664;139.738;2023-01-29T03:47:04;100021.63;;;17.89;19.42
9415;BME280;4746;35.664;139.738;2023-01-29T03:55:01;100001.19;;;19.00;18.79
9415;BME280;4746;35.664;139.738;2023-01-29T03:57:52;99992.50;;;19.81;18.08
9415;BME280;4746;35.664;139.738;2023-01-29T04:00:56;99979.06;;;19.95;17.98
9415;BME280;4746;35.664;139.738;2023-01-29T04:03:39;99970.34;;;20.20;17.99
9415;BME280;4746;35.664;139.738;2023-01-29T04:09:38;99961.19;;;21.23;17.22
9415;BME280;4746;35.664;139.738;2023-01-29T04:12:11;99961.00;;;21.49;17.10
9415;BME280;4746;35.664;139.738;2023-01-29T04:14:39;99959.66;;;21.39;16.92
9415;BME280;4746;35.664;139.738;2023-01-29T04:17:32;99954.66;;;21.13;17.45
9415;BME280;4746;35.664;139.738;2023-01-29T04:20:01;99949.56;;;21.72;17.06
9415;BME280;4746;35.664;139.738;2023-01-29T04:22:42;99941.31;;;24.50;15.40
9415;BME280;4746;35.664;139.738;2023-01-29T04:25:23;99929.91;;;26.99;13.61
9415;BME280;4746;35.664;139.738;2023-01-29T04:36:52;99920.19;;;31.35;11.67
9415;BME280;4746;35.664;139.738;2023-01-29T04:42:53;99915.50;;;32.10;11.42
9415;BME280;4746;35.664;139.738;2023-01-29T04:45:58;99913.75;;;32.50;11.45
9415;BME280;4746;35.664;139.738;2023-01-29T04:51:19;99924.34;;;32.80;11.10
9415;BME280;4746;35.664;139.738;2023-01-29T04:54:07;99915.38;;;33.11;10.76
9415;BME280;4746;35.664;139.738;2023-01-29T04:59:18;99924.50;;;33.36;10.61
9415;BME280;4746;35.664;139.738;2023-01-29T05:01:49;99916.66;;;33.54;10.73
9415;BME280;4746;35.664;139.738;2023-01-29T05:04:20;99912.88;;;33.94;10.56
9415;BME280;4746;35.664;139.738;2023-01-29T05:06:50;99916.94;;;34.44;10.10
9415;BME280;4746;35.664;139.738;2023-01-29T05:09:19;99913.94;;;34.92;9.73
9415;BME280;4746;35.664;139.738;2023-01-29T05:11:49;99920.69;;;35.31;10.04
9415;BME280;4746;35.664;139.738;2023-01-29T05:14:19;99911.88;;;35.48;9.97
9415;BME280;4746;35.664;139.738;2023-01-29T05:16:52;99911.88;;;35.48;9.81
9415;BME280;4746;35.664;139.738;2023-01-29T05:19:22;99913.28;;;35.52;9.56
9415;BME280;4746;35.664;139.738;2023-01-29T05:21:50;99910.50;;;35.79;8.96
9415;BME280;4746;35.664;139.738;2023-01-29T05:24:23;99914.00;;;35.97;9.55
9415;BME280;4746;35.664;139.738;2023-01-29T05:26:53;99913.00;;;35.98;8.76
9415;BME280;4746;35.664;139.738;2023-01-29T05:29:47;99915.16;;;35.94;9.11
9415;BME280;4746;35.664;139.738;2023-01-29T05:32:15;99916.25;;;35.92;9.08
9415;BME280;4746;35.664;139.738;2023-01-29T05:34:43;99916.25;;;35.92;9.06
9415;BME280;4746;35.664;139.738;2023-01-29T05:37:10;99909.88;;;36.02;8.94
9415;BME280;4746;35.664;139.738;2023-01-29T05:39:38;99922.25;;;36.36;8.56
9415;BME280;4746;35.664;139.738;2023-01-29T05:42:05;99917.09;;;36.68;8.68
9415;BME280;4746;35.664;139.738;2023-01-29T05:44:33;99929.22;;;36.88;8.46
9415;BME280;4746;35.664;139.738;2023-01-29T05:47:00;99923.72;;;36.89;8.46
9415;BME280;4746;35.664;139.738;2023-01-29T05:49:31;99921.78;;;37.07;8.40
9415;BME280;4746;35.664;139.738;2023-01-29T05:51:59;99919.97;;;37.24;8.39
9415;BME280;4746;35.664;139.738;2023-01-29T05:54:26;99921.03;;;37.54;8.18
9415;BME280;4746;35.664;139.738;2023-01-29T05:56:54;99927.94;;;37.81;8.02
9415;BME280;4746;35.664;139.738;2023-01-29T05:59:22;99921.38;;;38.07;8.38
9415;BME280;4746;35.664;139.738;2023-01-29T06:01:49;99914.34;;;38.22;8.22
9415;BME280;4746;35.664;139.738;2023-01-29T06:04:17;99903.44;;;38.31;7.96
9415;BME280;4746;35.664;139.738;2023-01-29T06:06:44;99908.59;;;38.41;7.52
9415;BME280;4746;35.664;139.738;2023-01-29T06:09:12;99909.78;;;38.38;7.78
9415;BME280;4746;35.664;139.738;2023-01-29T06:11:40;99915.00;;;38.32;7.28
9415;BME280;4746;35.664;139.738;2023-01-29T06:14:09;99919.16;;;38.34;7.69
9415;BME280;4746;35.664;139.738;2023-01-29T06:16:36;99914.63;;;38.35;7.42
9415;BME280;4746;35.664;139.738;2023-01-29T06:19:04;99914.19;;;38.24;8.01
9415;BME280;4746;35.664;139.738;2023-01-29T06:21:31;99922.38;;;38.06;8.03
9415;BME280;4746;35.664;139.738;2023-01-29T06:23:59;99924.72;;;38.01;8.05
9415;BME280;4746;35.664;139.738;2023-01-29T06:26:26;99922.03;;;37.69;7.87
9415;BME280;4746;35.664;139.738;2023-01-29T06:28:54;99931.72;;;37.47;8.34
9415;BME280;4746;35.664;139.738;2023-01-29T06:31:22;99929.31;;;37.20;8.30
9415;BME280;4746;35.664;139.738;2023-01-29T06:33:49;99934.28;;;37.07;8.16
9415;BME280;4746;35.664;139.738;2023-01-29T06:36:17;99933.78;;;36.62;8.74
9415;BME280;4746;35.664;139.738;2023-01-29T06:38:44;99934.72;;;36.53;8.80
9415;BME280;4746;35.664;139.738;2023-01-29T06:41:17;99925.19;;;36.25;8.72
9415;BME280;4746;35.664;139.738;2023-01-29T06:43:45;99929.59;;;35.92;9.00
9415;BME280;4746;35.664;139.738;2023-01-29T06:46:13;99926.44;;;35.53;9.02
9415;BME280;4746;35.664;139.738;2023-01-29T06:48:41;99921.06;;;35.36;8.98
9415;BME280;4746;35.664;139.738;2023-01-29T06:51:10;99936.44;;;34.80;9.57
9415;BME280;4746;35.664;139.738;2023-01-29T06:53:39;99923.59;;;34.21;9.90
9415;BME280;4746;35.664;139.738;2023-01-29T06:56:07;99925.78;;;33.70;10.19
9415;BME280;4746;35.664;139.738;2023-01-29T06:58:38;99938.09;;;33.71;10.21
9415;BME280;4746;35.664;139.738;2023-01-29T07:01:11;99925.78;;;33.89;9.67
9415;BME280;4746;35.664;139.738;2023-01-29T07:03:39;99937.50;;;33.96;10.07
9415;BME280;4746;35.664;139.738;2023-01-29T07:06:09;99936.50;;;33.97;9.96
9415;BME280;4746;35.664;139.738;2023-01-29T07:08:40;99939.34;;;33.67;10.08
9415;BME280;4746;35.664;139.738;2023-01-29T07:11:08;99935.16;;;33.55;10.11
9415;BME280;4746;35.664;139.738;2023-01-29T07:13:35;99949.50;;;33.34;10.01
9415;BME280;4746;35.664;139.738;2023-01-29T07:16:04;99952.53;;;32.01;10.32
9415;BME280;4746;35.664;139.738;2023-01-29T07:18:33;99952.28;;;29.54;11.38
9415;BME280;4746;35.664;139.738;2023-01-29T07:21:05;99951.00;;;27.38;12.79
9415;BME280;4746;35.664;139.738;2023-01-29T07:23:34;99953.97;;;25.65;13.63
9415;BME280;4746;35.664;139.738;2023-01-29T07:26:06;99954.97;;;24.22;14.74
9415;BME280;4746;35.664;139.738;2023-01-29T07:28:38;99960.97;;;23.05;15.26
9415;BME280;4746;35.664;139.738;2023-01-29T07:31:07;99972.47;;;22.06;16.07
9415;BME280;4746;35.664;139.738;2023-01-29T07:33:37;99966.28;;;21.26;16.51
9415;BME280;4746;35.664;139.738;2023-01-29T07:36:10;99963.94;;;20.53;17.07
9415;BME280;4746;35.664;139.738;2023-01-29T07:38:38;99977.72;;;19.83;17.42
9415;BME280;4746;35.664;139.738;2023-01-29T07:41:07;99971.16;;;19.20;17.75
9415;BME280;4746;35.664;139.738;2023-01-29T07:43:37;99979.94;;;18.59;18.29
9415;BME280;4746;35.664;139.738;2023-01-29T07:46:06;99988.22;;;18.10;18.70
9415;BME280;4746;35.664;139.738;2023-01-29T07:48:37;99987.66;;;17.66;19.36
9415;BME280;4746;35.664;139.738;2023-01-29T07:51:05;99976.47;;;17.31;19.62
9415;BME280;4746;35.664;139.738;2023-01-29T07:53:57;99984.78;;;17.43;19.52
9415;BME280;4746;35.664;139.738;2023-01-29T07:56:27;99982.91;;;17.12;19.97
9415;BME280;4746;35.664;139.738;2023-01-29T07:58:55;99989.97;;;16.68;19.98
9415;BME280;4746;35.664;139.738;2023-01-29T08:01:35;99989.25;;;16.16;20.99
9415;BME280;4746;35.664;139.738;2023-01-29T08:04:02;99990.94;;;15.72;21.26
9415;BME280;4746;35.664;139.738;2023-01-29T08:06:30;99981.19;;;15.39;21.39
9415;BME280;4746;35.664;139.738;2023-01-29T08:09:03;99989.28;;;15.14;22.17
9415;BME280;4746;35.664;139.738;2023-01-29T08:11:31;99982.78;;;14.89;22.19
9415;BME280;4746;35.664;139.738;2023-01-29T08:13:58;99992.56;;;14.66;22.41
9415;BME280;4746;35.664;139.738;2023-01-29T08:16:34;100003.97;;;14.48;22.55
9415;BME280;4746;35.664;139.738;2023-01-29T08:19:04;100000.75;;;14.28;22.92
9415;BME280;4746;35.664;139.738;2023-01-29T08:21:37;99998.34;;;14.11;23.54
9415;BME280;4746;35.664;139.738;2023-01-29T08:24:06;100000.22;;;13.94;23.49
9415;BME280;4746;35.664;139.738;2023-01-29T08:26:34;100002.06;;;13.82;23.63
9415;BME280;4746;35.664;139.738;2023-01-29T08:29:06;100015.06;;;13.70;23.73
9415;BME280;4746;35.664;139.738;2023-01-29T08:31:49;100017.69;;;13.64;23.71
9415;BME280;4746;35.664;139.738;2023-01-29T08:34:17;100017.81;;;13.49;23.95
9415;BME280;4746;35.664;139.738;2023-01-29T08:36:44;100017.91;;;13.37;24.05
9415;BME280;4746;35.664;139.738;2023-01-29T08:39:16;100023.13;;;13.27;24.35
9415;BME280;4746;35.664;139.738;2023-01-29T08:41:45;100025.75;;;13.17;24.67
9415;BME280;4746;35.664;139.738;2023-01-29T08:44:12;100027.56;;;13.09;24.79
9415;BME280;4746;35.664;139.738;2023-01-29T08:46:44;100029.31;;;13.01;25.03
9415;BME280;4746;35.664;139.738;2023-01-29T08:49:12;100028.47;;;12.93;25.23
9415;BME280;4746;35.664;139.738;2023-01-29T08:51:41;100023.38;;;12.87;25.17
9415;BME280;4746;35.664;139.738;2023-01-29T08:54:08;100025.09;;;12.77;25.41
9415;BME280;4746;35.664;139.738;2023-01-29T08:56:37;100032.84;;;12.73;25.33
9415;BME280;4746;35.664;139.738;2023-01-29T08:59:06;100032.88;;;12.67;25.64
9415;BME280;4746;35.664;139.738;2023-01-29T09:01:38;100026.91;;;12.57;26.29
9415;BME280;4746;35.664;139.738;2023-01-29T09:04:19;100030.34;;;12.53;26.07
9415;BME280;4746;35.664;139.738;2023-01-29T09:06:48;100034.69;;;12.44;26.09
9415;BME280;4746;35.664;139.738;2023-01-29T09:09:17;100041.53;;;12.39;26.28
9415;BME280;4746;35.664;139.738;2023-01-29T09:11:45;100045.84;;;12.33;26.43
9415;BME280;4746;35.664;139.738;2023-01-29T09:14:19;100050.16;;;12.28;26.84
9415;BME280;4746;35.664;139.738;2023-01-29T09:16:47;100053.56;;;12.22;26.90
9415;BME280;4746;35.664;139.738;2023-01-29T09:19:18;100054.44;;;12.18;27.13
9415;BME280;4746;35.664;139.738;2023-01-29T09:21:48;100055.31;;;12.14;27.33
9415;BME280;4746;35.664;139.738;2023-01-29T09:24:19;100046.75;;;12.12;27.36
9415;BME280;4746;35.664;139.738;2023-01-29T09:26:51;100042.47;;;12.05;27.58
9415;BME280;4746;35.664;139.738;2023-01-29T09:29:22;100045.91;;;12.04;27.48
9415;BME280;4746;35.664;139.738;2023-01-29T09:31:55;100043.34;;;12.01;27.55
9415;BME280;4746;35.664;139.738;2023-01-29T09:34:24;100053.59;;;11.98;27.61
9415;BME280;4746;35.664;139.738;2023-01-29T09:36:56;100051.06;;;11.95;28.10
9415;BME280;4746;35.664;139.738;2023-01-29T09:39:31;100058.75;;;11.92;28.18
9415;BME280;4746;35.664;139.738;2023-01-29T09:42:37;100050.22;;;11.90;28.08
9415;BME280;4746;35.664;139.738;2023-01-29T09:45:24;100050.22;;;11.84;28.59
9415;BME280;4746;35.664;139.738;2023-01-29T09:48:02;100048.50;;;11.80;28.61
9415;BME280;4746;35.664;139.738;2023-01-29T09:50:48;100051.94;;;11.79;28.58
9415;BME280;4746;35.664;139.738;2023-01-29T09:54:00;100056.19;;;11.75;28.44
9415;BME280;4746;35.664;139.738;2023-01-29T09:56:32;100054.47;;;11.60;29.03
9415;BME280;4746;35.664;139.738;2023-01-29T09:59:00;100057.94;;;11.53;29.12
9415;BME280;4746;35.664;139.738;2023-01-29T10:10:47;100053.63;;;11.45;29.86
9415;BME280;4746;35.664;139.738;2023-01-29T10:20:26;100056.19;;;11.39;30.46
9415;BME280;4746;35.664;139.738;2023-01-29T10:23:15;100057.00;;;11.35;31.14
9415;BME280;4746;35.664;139.738;2023-01-29T10:25:46;100069.84;;;11.38;31.62
9415;BME280;4746;35.664;139.738;2023-01-29T10:28:43;100065.56;;;11.44;31.73
9415;BME280;4746;35.664;139.738;2023-01-29T10:31:32;100063.88;;;11.45;31.82
9415;BME280;4746;35.664;139.738;2023-01-29T10:34:34;100063.88;;;11.48;32.25
9415;BME280;4746;35.664;139.738;2023-01-29T10:37:41;100060.44;;;11.49;32.21
9415;BME280;4746;35.664;139.738;2023-01-29T10:40:38;100057.03;;;11.47;31.96
9415;BME280;4746;35.664;139.738;2023-01-29T10:58:46;100054.47;;;11.38;32.46
9415;BME280;4746;35.664;139.738;2023-01-29T11:01:24;100053.59;;;11.33;33.13
9415;BME280;4746;35.664;139.738;2023-01-29T11:04:08;100055.31;;;11.35;32.69
9415;BME280;4746;35.664;139.738;2023-01-29T11:06:57;100045.91;;;11.34;32.83
9415;BME280;4746;35.664;139.738;2023-01-29T11:09:53;100047.63;;;11.35;32.85
9415;BME280;4746;35.664;139.738;2023-01-29T11:12:28;100052.75;;;11.35;32.88
9415;BME280;4746;35.664;139.738;2023-01-29T11:15:30;100051.91;;;11.38;32.89
9415;BME280;4746;35.664;139.738;2023-01-29T11:18:16;100053.59;;;11.36;33.16
9415;BME280;4746;35.664;139.738;2023-01-29T11:21:06;100050.19;;;11.37;33.35
9415;BME280;4746;35.664;139.738;2023-01-29T11:23:34;100052.72;;;11.32;34.38
9415;BME280;4746;35.664;139.738;2023-01-29T11:26:04;100054.44;;;11.32;33.57
9415;BME280;4746;35.664;139.738;2023-01-29T11:28:47;100048.47;;;11.33;34.16
9415;BME280;4746;35.664;139.738;2023-01-29T11:31:44;100041.63;;;11.35;34.05
9415;BME280;4746;35.664;139.738;2023-01-29T11:34:26;100039.06;;;11.38;34.21
9415;BME280;4746;35.664;139.738;2023-01-29T11:37:04;100039.06;;;11.36;34.38
9415;BME280;4746;35.664;139.738;2023-01-29T11:39:45;100033.94;;;11.33;34.76
9415;BME280;4746;35.664;139.738;2023-01-29T11:42:22;100043.34;;;11.39;34.63
9415;BME280;4746;35.664;139.738;2023-01-29T11:44:52;100035.66;;;11.39;35.24
9415;BME280;4746;35.664;139.738;2023-01-29T11:47:28;100031.38;;;11.44;35.20
9415;BME280;4746;35.664;139.738;2023-01-29T11:50:02;100034.78;;;11.46;34.93
9415;BME280;4746;35.664;139.738;2023-01-29T11:52:40;100027.94;;;11.48;34.80
9415;BME280;4746;35.664;139.738;2023-01-29T11:55:43;100036.53;;;11.53;34.38
9415;BME280;4746;35.664;139.738;2023-01-29T11:58:31;100033.13;;;11.51;34.70
9415;BME280;4746;35.664;139.738;2023-01-29T12:01:01;100022.84;;;11.45;35.01
9415;BME280;4746;35.664;139.738;2023-01-29T12:03:59;100015.97;;;11.47;35.07
9415;BME280;4746;35.664;139.738;2023-01-29T12:06:51;100023.66;;;11.48;34.92
9415;BME280;4746;35.664;139.738;2023-01-29T12:10:26;100027.94;;;11.48;35.65
9415;BME280;4746;35.664;139.738;2023-01-29T12:12:31;100024.53;;;11.47;35.21
9415;BME280;4746;35.664;139.738;2023-01-29T12:15:25;100031.38;;;11.50;35.52
9415;BME280;4746;35.664;139.738;2023-01-29T12:21:03;100020.28;;;11.45;35.54
9415;BME280;4746;35.664;139.738;2023-01-29T12:24:05;100017.69;;;11.43;35.47
9415;BME280;4746;35.664;139.738;2023-01-29T12:30:14;100002.31;;;11.34;36.30
9415;BME280;4746;35.664;139.738;2023-01-29T12:33:00;99998.03;;;11.30;36.88
9415;BME280;4746;35.664;139.738;2023-01-29T12:36:17;99993.75;;;11.31;36.51
9415;BME280;4746;35.664;139.738;2023-01-29T12:38:45;99992.03;;;11.24;36.98
9415;BME280;4746;35.664;139.738;2023-01-29T12:41:37;99992.03;;;11.24;37.10
9415;BME280;4746;35.664;139.738;2023-01-29T12:44:32;99992.00;;;11.19;37.32
9415;BME280;4746;35.664;139.738;2023-01-29T12:47:06;99983.50;;;11.10;37.84
9415;BME280;4746;35.664;139.738;2023-01-29T12:49:38;99990.31;;;11.07;37.74
9415;BME280;4746;35.664;139.738;2023-01-29T12:52:28;99985.16;;;11.05;38.01
9415;BME280;4746;35.664;139.738;2023-01-29T12:55:21;99992.00;;;11.02;37.88
9415;BME280;4746;35.664;139.738;2023-01-29T12:58:13;99980.91;;;10.98;37.96
9415;BME280;4746;35.664;139.738;2023-01-29T13:00:50;99980.03;;;10.93;38.16
9415;BME280;4746;35.664;139.738;2023-01-29T13:06:20;99975.75;;;10.88;38.67
9415;BME280;4746;35.664;139.738;2023-01-29T13:09:03;99970.63;;;10.88;38.86
9415;BME280;4746;35.664;139.738;2023-01-29T13:12:15;99972.34;;;10.89;38.19
9415;BME280;4746;35.664;139.738;2023-01-29T13:17:34;99973.19;;;10.83;38.87
9415;BME280;4746;35.664;139.738;2023-01-29T13:20:28;99974.88;;;10.84;38.60
9415;BME280;4746;35.664;139.738;2023-01-29T13:23:34;99974.88;;;10.81;38.47
9415;BME280;4746;35.664;139.738;2023-01-29T13:26:03;99972.28;;;10.74;39.45
9415;BME280;4746;35.664;139.738;2023-01-29T13:28:32;99960.34;;;10.73;39.48
9415;BME280;4746;35.664;139.738;2023-01-29T13:31:37;99958.66;;;10.73;38.98
9415;BME280;4746;35.664;139.738;2023-01-29T13:34:13;99950.94;;;10.66;39.58
9415;BME280;4746;35.664;139.738;2023-01-29T13:36:46;99947.50;;;10.65;39.68
9415;BME280;4746;35.664;139.738;2023-01-29T13:39:35;99954.34;;;10.66;40.03
9415;BME280;4746;35.664;139.738;2023-01-29T13:44:55;99940.69;;;10.61;39.89
9415;BME280;4746;35.664;139.738;2023-01-29T13:47:33;99938.13;;;10.61;39.96
9415;BME280;4746;35.664;139.738;2023-01-29T13:52:45;99944.09;;;10.59;40.62
9415;BME280;4746;35.664;139.738;2023-01-29T13:55:26;99936.41;;;10.57;40.23
9415;BME280;4746;35.664;139.738;2023-01-29T14:00:53;99935.53;;;10.49;40.14
9415;BME280;4746;35.664;139.738;2023-01-29T14:08:42;99926.97;;;10.44;40.58
9415;BME280;4746;35.664;139.738;2023-01-29T14:13:47;99928.69;;;10.39;40.43
9415;BME280;4746;35.664;139.738;2023-01-29T14:18:56;99923.56;;;10.39;40.40
9415;BME280;4746;35.664;139.738;2023-01-29T14:21:34;99928.69;;;10.39;40.52
9415;BME280;4746;35.664;139.738;2023-01-29T14:24:33;99927.81;;;10.40;40.09
9415;BME280;4746;35.664;139.738;2023-01-29T14:27:00;99923.53;;;10.34;40.56
9415;BME280;4746;35.664;139.738;2023-01-29T14:29:34;99927.78;;;10.35;40.64
9415;BME280;4746;35.664;139.738;2023-01-29T14:32:21;99921.81;;;10.33;40.83
9415;BME280;4746;35.664;139.738;2023-01-29T14:35:16;99923.50;;;10.29;40.48
9415;BME280;4746;35.664;139.738;2023-01-29T14:37:52;99918.34;;;10.19;40.36
9415;BME280;4746;35.664;139.738;2023-01-29T14:40:27;99926.00;;;10.13;40.84
9415;BME280;4746;35.664;139.738;2023-01-29T14:43:05;99927.66;;;10.03;40.73
9415;BME280;4746;35.664;139.738;2023-01-29T14:45:40;99927.63;;;9.97;40.73
9415;BME280;4746;35.664;139.738;2023-01-29T14:50:43;99932.66;;;9.85;40.58
9415;BME280;4746;35.664;139.738;2023-01-29T14:53:42;99927.53;;;9.82;40.32
9415;BME280;4746;35.664;139.738;2023-01-29T14:58:56;99929.16;;;9.64;40.70
9415;BME280;4746;35.664;139.738;2023-01-29T15:01:37;99931.69;;;9.58;40.01
9415;BME280;4746;35.664;139.738;2023-01-29T15:06:47;99918.81;;;9.46;40.70
9415;BME280;4746;35.664;139.738;2023-01-29T15:12:56;99910.22;;;9.41;40.41
9415;BME280;4746;35.664;139.738;2023-01-29T15:18:38;99911.03;;;9.31;40.48
9415;BME280;4746;35.664;139.738;2023-01-29T15:21:17;99912.69;;;9.26;40.18
9415;BME280;4746;35.664;139.738;2023-01-29T15:23:47;99918.59;;;9.18;40.56
9415;BME280;4746;35.664;139.738;2023-01-29T15:26:20;99914.31;;;9.15;40.53
9415;BME280;4746;35.664;139.738;2023-01-29T15:29:00;99909.22;;;9.15;40.33
9415;BME280;4746;35.664;139.738;2023-01-29T15:31:28;99904.06;;;9.09;40.80
9415;BME280;4746;35.664;139.738;2023-01-29T15:33:56;99909.16;;;9.09;41.01
9415;BME280;4746;35.664;139.738;2023-01-29T15:36:30;99909.16;;;9.09;40.92
9415;BME280;4746;35.664;139.738;2023-01-29T15:39:22;99907.50;;;9.11;40.95
9415;BME280;4746;35.664;139.738;2023-01-29T15:42:13;99909.16;;;9.09;40.68
9415;BME280;4746;35.664;139.738;2023-01-29T15:44:49;99909.13;;;9.03;40.79
9415;BME280;4746;35.664;139.738;2023-01-29T15:47:16;99902.28;;;9.02;40.85
9415;BME280;4746;35.664;139.738;2023-01-29T15:49:46;99909.13;;;9.03;40.62
9415;BME280;4746;35.664;139.738;2023-01-29T15:52:27;99904.00;;;9.06;41.18
9415;BME280;4746;35.664;139.738;2023-01-29T15:55:03;99910.81;;;9.04;41.01
9415;BME280;4746;35.664;139.738;2023-01-29T15:57:39;99906.56;;;9.02;40.79
9415;BME280;4746;35.664;139.738;2023-01-29T16:00:26;99903.97;;;9.00;40.89
9415;BME280;4746;35.664;139.738;2023-01-29T16:02:56;99905.63;;;8.96;41.01
9415;BME280;4746;35.664;139.738;2023-01-29T16:05:30;99904.78;;;8.97;41.22
9415;BME280;4746;35.664;139.738;2023-01-29T16:08:00;99898.81;;;8.95;41.66
9415;BME280;4746;35.664;139.738;2023-01-29T16:10:30;99896.25;;;8.93;41.22